Time,TemperatureF,DewpointF,PressureIn,WindDirection,WindDirectionDegrees,WindSpeedMPH,WindSpeedGustMPH,Humidity,HourlyPrecipIn,Conditions,Clouds,dailyrainin,SolarRadiationWatts/m^2,SoftwareType,DateUTC
2013-03-16 00:00:00,64.1,59.8,29.89,SSW,205,6.0,10.0,86,0.00,RA,SCT,0.00,0.0,WeatherDisplay:10.37,2013-03-16 10:00:00,
2013-03-16 00:10:00,64.1,59.8,29.88,SSW,202,5.0,9.0,86,0.00,FEW,SCT,0.00,0.0,WeatherDisplay:10.37,2013-03-16 10:10:00,
2013-03-16 00:20:00,64.0,60.1,29.88,SSW,205,5.0,10.0,87,0.00,FEW,SCT,0.00,0.0,WeatherDisplay:10.37,2013-03-16 10:20:00,
2013-03-16 00:30:00,64.0,60.0,29.87,SSW,192,5.0,12.0,87,0.00,FEW,SCT,0.00,0.0,WeatherDisplay:10.37,2013-03-16 10:30:00,
2013-03-16 00:40:00,63.9,59.6,29.87,SSW,195,6.0,10.0,86,0.00,FEW,SCT,0.00,0.0,WeatherDisplay:10.37,2013-03-16 10:40:00,
2013-03-16 00:50:00,63.8,59.6,29.87,SSW,210,6.0,10.0,86,0.00,FEW,SCT,0.00,0.0,WeatherDisplay:10.37,2013-03-16 10:50:00,
2013-03-16 01:00:00,63.8,59.5,29.87,SSW,200,3.0,8.0,86,0.00,FEW,SCT,0.00,0.0,WeatherDisplay:10.37,2013-03-16 11:00:00,
2013-03-16 01:10:00,63.7,59.4,29.86,SSW,212,6.0,8.0,86,0.00,FEW,SCT,0.00,0.0,WeatherDisplay:10.37,2013-03-16 11:10:00,
2013-03-16 01:20:00,63.6,59.0,29.86,SW,222,7.0,12.0,85,0.00,CLR,SCT,0.00,0.0,WeatherDisplay:10.37,2013-03-16 11:20:00,
2013-03-16 01:30:00,63.6,59.7,29.85,SW,224,3.0,8.0,87,0.00,CLR,SCT,0.00,0.0,WeatherDisplay:10.37,2013-03-16 11:30:00,
2013-03-16 01:40:00,63.5,59.6,29.86,SW,216,3.0,7.0,87,0.00,CLR,SCT,0.00,0.0,WeatherDisplay:10.37,2013-03-16 11:40:00,
2013-03-16 01:50:00,63.4,59.5,29.86,SW,219,5.0,9.0,87,0.00,CLR,SCT,0.00,0.0,WeatherDisplay:10.37,2013-03-16 11:50:00,
2013-03-16 02:00:00,63.4,59.5,29.85,SW,216,5.0,10.0,87,0.00,CLR,SCT,0.00,0.0,WeatherDisplay:10.37,2013-03-16 12:00:00,
2013-03-16 02:10:00,63.2,59.3,29.85,SSW,211,7.0,12.0,87,0.00,BKN,SCT,0.00,0.0,WeatherDisplay:10.37,2013-03-16 12:10:00,
2013-03-16 02:20:00,63.2,59.6,29.86,SSW,209,6.0,12.0,88,0.00,BKN,SCT,0.00,0.0,WeatherDisplay:10.37,2013-03-16 12:20:00,
2013-03-16 02:30:00,63.3,59.7,29.85,SSW,199,3.0,9.0,88,0.00,BKN,SCT,0.00,0.0,WeatherDisplay:10.37,2013-03-16 12:30:00,
2013-03-16 02:40:00,63.4,59.5,29.85,SSW,193,8.0,12.0,87,0.00,BKN,SCT,0.00,0.0,WeatherDisplay:10.37,2013-03-16 12:40:00,
2013-03-16 02:50:00,63.4,59.2,29.84,SSW,197,5.0,9.0,86,0.00,BKN,SCT,0.00,0.0,WeatherDisplay:10.37,2013-03-16 12:50:00,
2013-03-16 03:00:00,63.4,59.1,29.84,South,188,2.0,12.0,86,0.00,BKN,SCT,0.00,0.0,WeatherDisplay:10.37,2013-03-16 13:00:00,
2013-03-16 03:10:00,63.3,59.0,29.84,SW,216,5.0,7.0,86,0.00,OVC,SCT,0.00,0.0,WeatherDisplay:10.37,2013-03-16 13:10:00,
2013-03-16 03:20:00,63.2,59.6,29.85,WSW,255,3.0,8.0,88,0.00,OVC,SCT,0.00,0.0,WeatherDisplay:10.37,2013-03-16 13:20:00,
2013-03-16 03:30:00,63.1,60.7,29.84,West,274,5.0,7.0,92,0.00,OVC,SCT,0.00,0.0,WeatherDisplay:10.37,2013-03-16 13:30:00,
2013-03-16 03:40:00,62.9,60.9,29.85,WNW,292,5.0,6.0,93,0.00,OVC,SCT,0.00,0.0,WeatherDisplay:10.37,2013-03-16 13:40:00,
2013-03-16 03:50:00,62.5,60.8,29.85,WNW,303,1.0,5.0,94,0.00,BKN,SCT,0.00,0.0,WeatherDisplay:10.37,2013-03-16 13:50:00,
2013-03-16 04:00:00,62.3,60.6,29.84,NW,308,3.0,7.0,94,0.00,BKN,SCT,0.00,0.0,WeatherDisplay:10.37,2013-03-16 14:00:00,
2013-03-16 04:10:00,62.1,60.4,29.84,NW,304,0.0,5.0,94,0.00,BKN,SCT,0.00,0.0,WeatherDisplay:10.37,2013-03-16 14:10:00,
2013-03-16 04:20:00,62.0,60.3,29.84,NW,308,3.0,5.0,94,0.00,BKN,SCT,0.00,0.0,WeatherDisplay:10.37,2013-03-16 14:20:00,
2013-03-16 04:30:00,61.9,60.5,29.84,WNW,302,1.0,7.0,95,0.00,BKN,SCT,0.00,0.0,WeatherDisplay:10.37,2013-03-16 14:30:00,
2013-03-16 04:40:00,61.8,60.4,29.84,West,268,3.0,5.0,95,0.00,BKN,SCT,0.00,0.0,WeatherDisplay:10.37,2013-03-16 14:40:00,
2013-03-16 04:50:00,61.7,60.3,29.84,West,263,3.0,6.0,95,0.00,BKN,SCT,0.00,0.0,WeatherDisplay:10.37,2013-03-16 14:50:00,
2013-03-16 05:00:00,61.6,60.2,29.84,West,280,1.0,4.0,95,0.00,BKN,SCT,0.00,0.0,WeatherDisplay:10.37,2013-03-16 15:00:00,
2013-03-16 05:10:00,61.6,60.4,29.84,WNW,284,5.0,8.0,96,0.00,OVC,SCT,0.00,0.0,WeatherDisplay:10.37,2013-03-16 15:10:00,
2013-03-16 05:20:00,61.6,60.4,29.85,WNW,301,3.0,9.0,96,0.00,OVC,SCT,0.00,0.0,WeatherDisplay:10.37,2013-03-16 15:20:00,
2013-03-16 05:30:00,61.6,60.4,29.85,WNW,292,3.0,7.0,96,0.00,OVC,SCT,0.00,0.0,WeatherDisplay:10.37,2013-03-16 15:30:00,
2013-03-16 05:40:00,61.6,60.4,29.85,WNW,293,1.0,10.0,96,0.00,OVC,SCT,0.00,0.0,WeatherDisplay:10.37,2013-03-16 15:40:00,
2013-03-16 05:50:00,61.5,60.3,29.85,West,271,6.0,10.0,96,0.00,OVC,SCT,0.00,0.0,WeatherDisplay:10.37,2013-03-16 15:50:00,
2013-03-16 06:00:00,61.5,60.3,29.85,West,273,7.0,10.0,96,0.00,OVC,SCT,0.00,0.0,WeatherDisplay:10.37,2013-03-16 16:00:00,
2013-03-16 06:10:00,61.1,60.0,29.86,WNW,291,6.0,12.0,96,0.00,OVC,SCT,0.00,0.0,WeatherDisplay:10.37,2013-03-16 16:10:00,
2013-03-16 06:20:00,60.6,59.5,29.87,WNW,294,7.0,12.0,96,0.00,OVC,SCT,0.00,0.0,WeatherDisplay:10.37,2013-03-16 16:20:00,
2013-03-16 06:30:00,60.4,59.3,29.87,WNW,296,1.0,8.0,96,0.01,RA,SCT,0.01,0.0,WeatherDisplay:10.37,2013-03-16 16:30:00,
2013-03-16 06:40:00,60.1,59.0,29.87,NW,313,9.0,14.0,96,0.00,OVC,SCT,0.01,0.0,WeatherDisplay:10.37,2013-03-16 16:40:00,
2013-03-16 06:50:00,59.9,58.8,29.88,WNW,295,5.0,12.0,96,0.00,OVC,SCT,0.01,0.0,WeatherDisplay:10.37,2013-03-16 16:50:00,
2013-03-16 07:00:00,59.8,58.7,29.89,NW,308,3.0,9.0,96,0.00,OVC,SCT,0.01,0.0,WeatherDisplay:10.37,2013-03-16 17:00:00,
2013-03-16 07:10:00,59.7,58.6,29.89,WNW,298,1.0,8.0,96,0.01,RA,SCT,0.02,0.1,WeatherDisplay:10.37,2013-03-16 17:10:00,
2013-03-16 07:20:00,59.8,58.7,29.90,WNW,288,2.0,6.0,96,0.00,OVC,SCT,0.02,0.3,WeatherDisplay:10.37,2013-03-16 17:20:00,
2013-03-16 07:30:00,59.8,58.7,29.90,WNW,296,2.0,7.0,96,0.01,RA,SCT,0.03,0.7,WeatherDisplay:10.37,2013-03-16 17:30:00,
2013-03-16 07:40:00,59.9,58.8,29.91,WNW,294,2.0,5.0,96,0.01,RA,SCT,0.04,1.0,WeatherDisplay:10.37,2013-03-16 17:40:00,
2013-03-16 07:50:00,60.0,59.1,29.91,WNW,283,2.0,3.0,97,0.00,OVC,SCT,0.04,1.6,WeatherDisplay:10.37,2013-03-16 17:50:00,
2013-03-16 08:00:00,60.1,59.2,29.91,WNW,283,0.0,3.0,97,0.00,OVC,SCT,0.04,2.1,WeatherDisplay:10.37,2013-03-16 18:00:00,
2013-03-16 08:10:00,60.3,59.4,29.92,WNW,283,0.0,3.0,97,0.00,OVC,SCT,0.04,2.4,WeatherDisplay:10.37,2013-03-16 18:10:00,
2013-03-16 08:20:00,60.6,59.7,29.92,WNW,283,2.0,5.0,97,0.00,OVC,SCT,0.04,3.9,WeatherDisplay:10.37,2013-03-16 18:20:00,
2013-03-16 08:30:00,60.7,59.8,29.92,NW,324,6.0,10.0,97,0.01,RA,SCT,0.05,3.2,WeatherDisplay:10.37,2013-03-16 18:30:00,
2013-03-16 08:40:00,60.6,59.7,29.92,NNW,329,5.0,10.0,97,0.00,OVC,SCT,0.05,9.4,WeatherDisplay:10.37,2013-03-16 18:40:00,
2013-03-16 08:50:00,60.8,59.9,29.93,NW,324,6.0,12.0,97,0.02,RA,SCT,0.07,10.8,WeatherDisplay:10.37,2013-03-16 18:50:00,
2013-03-16 09:00:00,60.8,59.9,29.93,NW,315,3.0,12.0,97,0.01,RA,SCT,0.08,18.1,WeatherDisplay:10.37,2013-03-16 19:00:00,
2013-03-16 09:10:00,60.9,60.1,29.93,NW,316,1.0,6.0,97,0.01,RA,SCT,0.09,28.7,WeatherDisplay:10.37,2013-03-16 19:10:00,
2013-03-16 09:20:00,61.0,60.1,29.93,NW,310,3.0,5.0,97,0.00,OVC,SCT,0.09,22.5,WeatherDisplay:10.37,2013-03-16 19:20:00,
2013-03-16 09:30:00,61.2,60.3,29.93,WNW,301,2.0,6.0,97,0.00,OVC,SCT,0.09,34.5,WeatherDisplay:10.37,2013-03-16 19:30:00,
2013-03-16 09:40:00,61.1,60.0,29.94,NW,310,6.0,12.0,96,0.00,OVC,SCT,0.09,29.6,WeatherDisplay:10.37,2013-03-16 19:40:00,
2013-03-16 09:50:00,60.8,59.4,29.94,WNW,303,3.0,10.0,95,0.00,OVC,SCT,0.09,44.7,WeatherDisplay:10.37,2013-03-16 19:50:00,
2013-03-16 10:00:00,60.9,59.5,29.94,WNW,297,5.0,10.0,95,0.00,OVC,SCT,0.09,60.0,WeatherDisplay:10.37,2013-03-16 20:00:00,
2013-03-16 10:10:00,61.3,59.9,29.94,NW,306,3.0,8.0,95,0.00,OVC,SCT,0.09,91.6,WeatherDisplay:10.37,2013-03-16 20:10:00,
2013-03-16 10:20:00,61.7,59.3,29.94,WNW,303,3.0,10.0,92,0.00,OVC,SCT,0.09,85.9,WeatherDisplay:10.37,2013-03-16 20:20:00,
2013-03-16 10:30:00,61.9,58.9,29.94,NW,308,5.0,10.0,90,0.00,OVC,SCT,0.09,95.6,WeatherDisplay:10.37,2013-03-16 20:30:00,
2013-03-16 10:40:00,62.3,59.0,29.93,NW,317,3.0,8.0,89,0.00,OVC,SCT,0.09,136.4,WeatherDisplay:10.37,2013-03-16 20:40:00,
2013-03-16 10:50:00,62.7,59.1,29.93,NW,318,6.0,10.0,88,0.00,OVC,SCT,0.09,130.1,WeatherDisplay:10.37,2013-03-16 20:50:00,
2013-03-16 11:00:00,63.0,59.1,29.93,NW,324,3.0,8.0,87,0.00,OVC,SCT,0.09,187.7,WeatherDisplay:10.37,2013-03-16 21:00:00,
2013-03-16 11:10:00,63.5,59.6,29.93,NW,311,7.0,10.0,87,0.00,BKN,SCT,0.09,122.5,WeatherDisplay:10.37,2013-03-16 21:10:00,
2013-03-16 11:20:00,63.5,58.9,29.92,NW,316,7.0,10.0,85,0.00,BKN,SCT,0.09,100.5,WeatherDisplay:10.37,2013-03-16 21:20:00,
2013-03-16 11:30:00,63.4,59.5,29.92,NNW,329,6.0,9.0,87,0.00,BKN,SCT,0.09,137.5,WeatherDisplay:10.37,2013-03-16 21:30:00,
2013-03-16 11:40:00,63.3,58.7,29.92,NW,319,7.0,14.0,85,0.00,BKN,SCT,0.09,112.2,WeatherDisplay:10.37,2013-03-16 21:40:00,
2013-03-16 11:50:00,63.2,58.6,29.92,NW,311,6.0,12.0,85,0.00,BKN,SCT,0.09,109.5,WeatherDisplay:10.37,2013-03-16 21:50:00,
2013-03-16 12:00:00,63.0,57.8,29.92,WNW,299,6.0,12.0,83,0.00,BKN,SCT,0.09,105.2,WeatherDisplay:10.37,2013-03-16 22:00:00,
2013-03-16 12:10:00,63.0,57.4,29.92,NW,319,3.0,9.0,82,0.00,OVC,SCT,0.09,118.2,WeatherDisplay:10.37,2013-03-16 22:10:00,
2013-03-16 12:20:00,63.1,57.2,29.91,NNW,327,5.0,12.0,81,0.00,OVC,SCT,0.09,177.2,WeatherDisplay:10.37,2013-03-16 22:20:00,
2013-03-16 12:30:00,63.2,57.3,29.91,NNW,331,2.0,10.0,81,0.00,OVC,SCT,0.09,194.7,WeatherDisplay:10.37,2013-03-16 22:30:00,
2013-03-16 12:40:00,63.4,56.8,29.91,NNW,343,2.0,7.0,79,0.00,OVC,SCT,0.09,175.4,WeatherDisplay:10.37,2013-03-16 22:40:00,
2013-03-16 12:50:00,63.7,57.4,29.90,NW,324,2.0,8.0,80,0.00,OVC,SCT,0.09,164.1,WeatherDisplay:10.37,2013-03-16 22:50:00,
2013-03-16 13:00:00,64.0,57.7,29.90,NW,322,3.0,6.0,80,0.00,OVC,SCT,0.09,175.4,WeatherDisplay:10.37,2013-03-16 23:00:00,
2013-03-16 13:10:00,64.0,57.7,29.89,NNW,340,1.0,9.0,80,0.00,OVC,SCT,0.09,159.8,WeatherDisplay:10.37,2013-03-16 23:10:00,
2013-03-16 13:20:00,64.1,57.5,29.89,NNW,330,5.0,8.0,79,0.00,OVC,SCT,0.09,229.4,WeatherDisplay:10.37,2013-03-16 23:20:00,
2013-03-16 13:30:00,64.4,57.4,29.89,NNW,346,2.0,5.0,78,0.00,OVC,SCT,0.09,209.1,WeatherDisplay:10.37,2013-03-16 23:30:00,
2013-03-16 13:40:00,64.7,57.0,29.88,NNW,334,5.0,6.0,76,0.00,OVC,SCT,0.09,285.9,WeatherDisplay:10.37,2013-03-16 23:40:00,
2013-03-16 13:50:00,65.0,57.3,29.88,NNW,346,3.0,8.0,76,0.00,OVC,SCT,0.09,260.7,WeatherDisplay:10.37,2013-03-16 23:50:00,
2013-03-16 14:00:00,65.6,58.2,29.88,NNW,336,2.0,8.0,77,0.00,OVC,SCT,0.09,229.7,WeatherDisplay:10.37,2013-03-17 00:00:00,
2013-03-16 14:10:00,66.0,58.2,29.88,North,359,2.0,8.0,76,0.00,OVC,SCT,0.09,231.0,WeatherDisplay:10.37,2013-03-17 00:10:00,
2013-03-16 14:20:00,66.7,58.9,29.87,NNW,336,3.0,8.0,76,0.00,OVC,SCT,0.09,556.9,WeatherDisplay:10.37,2013-03-17 00:20:00,
2013-03-16 14:30:00,67.7,58.3,29.87,NNW,345,3.0,9.0,72,0.00,OVC,SCT,0.09,319.0,WeatherDisplay:10.37,2013-03-17 00:30:00,
2013-03-16 14:40:00,67.5,57.8,29.88,NNW,335,5.0,12.0,71,0.00,OVC,SCT,0.09,146.3,WeatherDisplay:10.37,2013-03-17 00:40:00,
2013-03-16 14:50:00,67.1,57.3,29.88,NW,305,5.0,10.0,71,0.00,OVC,SCT,0.09,146.7,WeatherDisplay:10.37,2013-03-17 00:50:00,
2013-03-16 15:00:00,66.5,58.0,29.87,NNW,335,5.0,7.0,74,0.00,OVC,SCT,0.09,84.7,WeatherDisplay:10.37,2013-03-17 01:00:00,
2013-03-16 15:10:00,66.2,58.0,29.87,NNW,345,2.0,7.0,75,0.00,SCT,SCT,0.09,76.2,WeatherDisplay:10.37,2013-03-17 01:10:00,
2013-03-16 15:20:00,65.8,57.3,29.87,NNW,337,6.0,10.0,74,0.00,SCT,SCT,0.09,73.5,WeatherDisplay:10.37,2013-03-17 01:20:00,
2013-03-16 15:30:00,65.4,56.9,29.87,NNW,338,5.0,9.0,74,0.00,SCT,SCT,0.09,74.0,WeatherDisplay:10.37,2013-03-17 01:30:00,
2013-03-16 15:40:00,65.2,56.7,29.87,North,353,2.0,8.0,74,0.00,SCT,SCT,0.09,72.4,WeatherDisplay:10.37,2013-03-17 01:40:00,
2013-03-16 15:50:00,65.7,58.0,29.87,NW,326,1.0,7.0,76,0.00,SCT,SCT,0.09,76.9,WeatherDisplay:10.37,2013-03-17 01:50:00,
2013-03-16 16:00:00,66.3,57.8,29.88,NNW,336,3.0,9.0,74,0.00,SCT,SCT,0.09,49.9,WeatherDisplay:10.37,2013-03-17 02:00:00,
2013-03-16 16:10:00,66.2,57.7,29.87,NNW,329,3.0,7.0,74,0.00,BKN,SCT,0.09,86.3,WeatherDisplay:10.37,2013-03-17 02:10:00,
2013-03-16 16:20:00,66.2,58.0,29.87,North,353,3.0,8.0,75,0.00,BKN,SCT,0.09,38.9,WeatherDisplay:10.37,2013-03-17 02:20:00,
2013-03-16 16:30:00,66.1,57.6,29.87,NNW,331,5.0,10.0,74,0.00,BKN,SCT,0.09,21.3,WeatherDisplay:10.37,2013-03-17 02:30:00,
2013-03-16 16:40:00,65.6,57.5,29.87,NNW,346,3.0,7.0,75,0.00,BKN,SCT,0.09,13.5,WeatherDisplay:10.37,2013-03-17 02:40:00,
2013-03-16 16:50:00,65.1,57.7,29.87,NNW,343,2.0,7.0,77,0.00,BKN,SCT,0.09,12.0,WeatherDisplay:10.37,2013-03-17 02:50:00,
2013-03-16 17:00:00,64.9,58.2,29.87,NNW,333,2.0,6.0,79,0.00,BKN,SCT,0.09,10.8,WeatherDisplay:10.37,2013-03-17 03:00:00,
2013-03-16 17:10:00,64.6,58.3,29.87,North,355,3.0,7.0,80,0.00,BKN,SCT,0.09,1.9,WeatherDisplay:10.37,2013-03-17 03:10:00,
2013-03-16 17:20:00,64.2,58.6,29.88,NNW,332,2.0,7.0,82,0.00,BKN,SCT,0.09,1.9,WeatherDisplay:10.37,2013-03-17 03:20:00,
2013-03-16 17:30:00,63.9,58.3,29.88,North,352,2.0,7.0,82,0.00,BKN,SCT,0.09,2.1,WeatherDisplay:10.37,2013-03-17 03:30:00,
2013-03-16 17:40:00,63.8,58.2,29.89,North,351,2.0,7.0,82,0.00,BKN,SCT,0.09,1.7,WeatherDisplay:10.37,2013-03-17 03:40:00,
2013-03-16 17:50:00,63.7,58.1,29.89,NNW,339,2.0,7.0,82,0.00,BKN,SCT,0.09,0.6,WeatherDisplay:10.37,2013-03-17 03:50:00,
2013-03-16 18:00:00,63.6,58.0,29.89,NNW,334,2.0,5.0,82,0.00,BKN,SCT,0.09,0.2,WeatherDisplay:10.37,2013-03-17 04:00:00,
2013-03-16 18:10:00,63.4,57.8,29.89,NNW,343,3.0,8.0,82,0.00,BKN,SCT,0.09,0.1,WeatherDisplay:10.37,2013-03-17 04:10:00,
2013-03-16 18:20:00,62.9,57.6,29.88,North,349,0.0,7.0,83,0.00,BKN,SCT,0.09,0.0,WeatherDisplay:10.37,2013-03-17 04:20:00,
2013-03-16 18:30:00,62.5,57.6,29.89,North,356,0.0,7.0,84,0.00,BKN,SCT,0.09,0.0,WeatherDisplay:10.37,2013-03-17 04:30:00,
2013-03-16 18:40:00,62.3,57.7,29.89,North,358,0.0,2.0,85,0.00,BKN,SCT,0.09,0.0,WeatherDisplay:10.37,2013-03-17 04:40:00,
2013-03-16 18:50:00,62.1,57.5,29.91,North,358,0.0,2.0,85,0.00,BKN,SCT,0.09,0.0,WeatherDisplay:10.37,2013-03-17 04:50:00,
2013-03-16 19:20:00,61.9,57.3,29.92,North,358,0.0,2.0,85,0.00,SCT,SCT,0.09,0.0,WeatherDisplay:10.37,2013-03-17 05:20:00,
2013-03-16 19:30:00,61.8,57.2,29.92,North,358,0.0,3.0,85,0.00,SCT,SCT,0.09,0.0,WeatherDisplay:10.37,2013-03-17 05:30:00,
2013-03-16 19:40:00,61.7,56.5,29.92,North,358,1.0,3.0,83,0.00,SCT,SCT,0.09,0.0,WeatherDisplay:10.37,2013-03-17 05:40:00,
2013-03-16 19:50:00,61.7,56.1,29.93,North,358,0.0,3.0,82,0.00,SCT,SCT,0.09,0.0,WeatherDisplay:10.37,2013-03-17 05:50:00,
2013-03-16 20:00:00,61.6,56.0,29.93,North,358,0.0,1.0,82,0.00,SCT,SCT,0.09,0.0,WeatherDisplay:10.37,2013-03-17 06:00:00,
2013-03-16 20:10:00,61.6,56.0,29.93,North,358,0.0,0.0,82,0.00,BKN,SCT,0.09,0.0,WeatherDisplay:10.37,2013-03-17 06:10:00,
2013-03-16 20:20:00,61.6,56.3,29.93,North,358,0.0,1.0,83,0.00,BKN,SCT,0.09,0.0,WeatherDisplay:10.37,2013-03-17 06:20:00,
2013-03-16 20:30:00,61.5,55.6,29.94,North,358,0.0,2.0,81,0.00,BKN,SCT,0.09,0.0,WeatherDisplay:10.37,2013-03-17 06:30:00,
2013-03-16 20:40:00,61.4,55.5,29.94,North,358,0.0,0.0,81,0.00,BKN,SCT,0.09,0.0,WeatherDisplay:10.37,2013-03-17 06:40:00,
2013-03-16 20:50:00,61.4,55.5,29.95,North,358,0.0,0.0,81,0.00,BKN,SCT,0.09,0.0,WeatherDisplay:10.37,2013-03-17 06:50:00,
2013-03-16 21:00:00,61.3,55.8,29.95,North,358,0.0,0.0,82,0.00,BKN,SCT,0.09,0.0,WeatherDisplay:10.37,2013-03-17 07:00:00,
2013-03-16 21:10:00,61.1,55.9,29.96,North,358,0.0,0.0,83,0.00,BKN,SCT,0.09,0.0,WeatherDisplay:10.37,2013-03-17 07:10:00,
2013-03-16 21:20:00,61.1,55.9,29.97,North,358,0.0,0.0,83,0.00,FEW,SCT,0.09,0.0,WeatherDisplay:10.37,2013-03-17 07:20:00,
2013-03-16 21:30:00,60.9,56.0,29.97,North,358,0.0,0.0,84,0.00,FEW,SCT,0.09,0.0,WeatherDisplay:10.37,2013-03-17 07:30:00,
2013-03-16 21:40:00,60.8,55.9,29.96,North,358,0.0,1.0,84,0.00,FEW,SCT,0.09,0.0,WeatherDisplay:10.37,2013-03-17 07:40:00,
2013-03-16 21:50:00,60.6,56.1,29.96,North,358,0.0,0.0,85,0.00,FEW,SCT,0.09,0.0,WeatherDisplay:10.37,2013-03-17 07:50:00,
2013-03-16 22:00:00,60.5,56.3,29.96,North,358,0.0,0.0,86,0.00,FEW,SCT,0.09,0.0,WeatherDisplay:10.37,2013-03-17 08:00:00,
2013-03-16 22:10:00,60.3,56.1,29.97,North,358,0.0,0.0,86,0.00,FEW,SCT,0.09,0.0,WeatherDisplay:10.37,2013-03-17 08:10:00,
2013-03-16 22:20:00,60.3,55.8,29.97,North,358,0.0,0.0,85,0.00,SCT,SCT,0.09,0.0,WeatherDisplay:10.37,2013-03-17 08:20:00,
2013-03-16 22:30:00,60.3,56.1,29.96,North,358,0.0,0.0,86,0.00,SCT,SCT,0.09,0.0,WeatherDisplay:10.37,2013-03-17 08:30:00,
2013-03-16 22:40:00,60.2,55.7,29.96,North,359,0.0,0.0,85,0.00,SCT,SCT,0.09,0.0,WeatherDisplay:10.37,2013-03-17 08:40:00,
2013-03-16 22:50:00,60.1,55.9,29.96,North,358,0.0,1.0,86,0.00,SCT,SCT,0.09,0.0,WeatherDisplay:10.37,2013-03-17 08:50:00,
2013-03-16 23:00:00,59.9,55.7,29.95,North,358,0.0,1.0,86,0.00,SCT,SCT,0.09,0.0,WeatherDisplay:10.37,2013-03-17 09:00:00,
2013-03-16 23:10:00,59.8,55.9,29.95,North,358,0.0,0.0,87,0.00,SCT,SCT,0.09,0.0,WeatherDisplay:10.37,2013-03-17 09:10:00,
2013-03-16 23:20:00,59.6,55.7,29.95,North,358,0.0,1.0,87,0.00,CLR,SCT,0.09,0.0,WeatherDisplay:10.37,2013-03-17 09:20:00,
2013-03-16 23:30:00,59.5,55.6,29.95,North,358,0.0,1.0,87,0.00,CLR,SCT,0.09,0.0,WeatherDisplay:10.37,2013-03-17 09:30:00,
2013-03-16 23:40:00,59.5,55.6,29.94,North,359,1.0,3.0,87,0.00,CLR,SCT,0.09,0.0,WeatherDisplay:10.37,2013-03-17 09:40:00,
2013-03-16 23:50:00,59.5,55.6,29.94,North,359,0.0,1.0,87,0.00,CLR,SCT,0.09,0.0,WeatherDisplay:10.37,2013-03-17 09:50:00,